Terminal Aerodrome Forecast
Issued by NWS

Home | Current Version | Previous Version | Text Only | Print | Product List | Glossary On
Versions: 1 2 3 4 5 6 7 8 9 10 11 12 13 14 15 16
000
FTUS44 KLIX 241122
TAFMSY
TAF
KMSY 241122Z 2412/2512 14010KT P6SM SCT015 BKN250
     FM241400 14012KT P6SM BKN040
     FM250300 15013G24KT P6SM BKN015 PROB30 2509/2512 4SM TSRA
      OVC007CB=

USA.gov is the U.S. government's official web portal to all federal, state and local government web resources and services.